Arklow Mill — EIJD9 — position and weather

sailwx.info

Track history (hours):
 
Tides and Currents Weather Stations Pressure Air Temp Water Temp Dewpoint Dewpoint Depression Visibility Wind Speed Wind Dir Waves Ship Positions

Arklow Mill

Last reported at 2016-Dec-03 04:32 UTC. Time now 2016-Dec-04 06:05 UTC.
Position N 60°05' E 006°32'.

Length 137 m; draft 8.4 m.

Type: Ship. MMSI: 250002022.

Date/timePositionNaut miles runAvg speedWind from/ knotsBaromVisibWave heightAir tempDewpointWater temp
2016-Dec-03 04:32N 60°05' E 006°32'0 0.0
2016-Dec-03 03:32N 60°05' E 006°32'0 0.0
2016-Dec-03 02:33N 60°05' E 006°32'0 0.0
2016-Dec-03 01:33N 60°05' E 006°32'0 0.0
2016-Dec-03 00:31N 60°05' E 006°32'0 0.0
2016-Dec-02 23:31N 60°05' E 006°32'0 0.0
2016-Dec-02 22:33N 60°05' E 006°32'0 0.0
2016-Dec-02 21:33N 60°05' E 006°32'0 0.0
2016-Dec-02 20:32N 60°05' E 006°32'0 0.0
2016-Dec-02 19:33N 60°05' E 006°32'0 0.0
2016-Dec-02 18:31N 60°05' E 006°32'0 0.0
2016-Dec-02 17:30N 60°05' E 006°32'0 0.0
2016-Dec-02 16:31N 60°05' E 006°32'1515.3
2016-Dec-02 15:33N 60°20' E 006°38'7 7.1
2016-Dec-02 14:33N 60°26' E 006°32'10 9.7
2016-Dec-02 13:32N 60°20' E 006°17'9 9.3
2016-Dec-02 12:32N 60°13' E 006°06'9 9.5
2016-Dec-02 11:33N 60°04' E 005°60'10 9.8
2016-Dec-02 10:32N 59°56' E 005°47'10 9.8
2016-Dec-02 09:33N 59°49' E 005°35'9 8.7
2016-Dec-02 08:32N 59°57' E 005°27'8 8.2
2016-Dec-02 07:32N 60°04' E 005°19'8 7.4
2016-Dec-02 06:30N 60°10' E 005°12'7 6.9
2016-Dec-02 05:32N 60°09' E 004°59'7 6.9
2016-Dec-02 04:33N 60°07' E 004°46'5345.3
2016-Dec-02 03:23N 60°05' E 006°32'0 0.0
2016-Dec-02 02:31N 60°05' E 006°32'0 0.0
2016-Dec-02 01:33N 60°05' E 006°32'0 0.0
2016-Dec-02 00:33N 60°05' E 006°32'0 0.0
2016-Dec-01 23:33N 60°05' E 006°32'0 0.0
2016-Dec-01 22:31N 60°05' E 006°32'0 0.0
2016-Dec-01 21:30N 60°05' E 006°32'0 0.0
2016-Dec-01 20:33N 60°05' E 006°32'0 0.0
2016-Dec-01 19:31N 60°05' E 006°32'0 0.0
2016-Dec-01 18:32N 60°05' E 006°32'  
2016-Nov-28 11:33N 58°45' W 002°42'1211.8
2016-Nov-28 10:33N 58°43' W 003°04'1615.6
2016-Nov-28 09:31N 58°42' W 003°35'1415.2
2016-Nov-28 08:33N 58°41' W 004°03'19210.7
2016-Nov-27 14:34N 55°53' W 006°54'1413.5
2016-Nov-27 13:33N 55°43' W 006°39'1514.9
2016-Nov-27 12:33N 55°31' W 006°22'1413.9
2016-Nov-27 11:33N 55°23' W 006°02'1413.8
2016-Nov-27 10:33N 55°12' W 005°48'1813.0
2016-Nov-27 09:10N 54°57' W 005°30'711.6
2016-Nov-27 08:33N 54°51' W 005°23'1211.6
2016-Nov-27 07:33N 54°42' W 005°12'1010.4
2016-Nov-27 06:33N 54°31' W 005°10'1111.5
2016-Nov-27 05:33N 54°20' W 005°12'1412.1
2016-Nov-27 04:26N 54°06' W 005°15'20612.2
2016-Nov-26 11:30N 50°44' W 006°19'  
2016-Nov-23 12:33N 39°22' W 009°50'1010.1
2016-Nov-23 11:33N 39°12' W 009°50'1110.6
2016-Nov-23 10:33N 39°01' W 009°50'1110.6
2016-Nov-23 09:33N 38°51' W 009°51'1110.6
2016-Nov-23 08:33N 38°40' W 009°49'1111.0
2016-Nov-23 07:33N 38°29' W 009°47'1211.9
2016-Nov-23 06:31N 38°17' W 009°43'  
Track history (hours):
 
Tides and Currents Weather Stations Pressure Air Temp Water Temp Dewpoint Dewpoint Depression Visibility Wind Speed Wind Dir Waves Ship Positions

Arklow Mill

Last reported at 2016-Dec-03 04:32 UTC. Time now 2016-Dec-04 06:05 UTC.
Position N 60°05' E 006°32'.

Length 137 m; draft 8.4 m.

Type: Ship. MMSI: 250002022.

Date/timePositionNaut miles runAvg speedWind from/ knotsBaromVisibWave heightAir tempDewpointWater temp
2016-Dec-03 04:32N 60°05' E 006°32'0 0.0
2016-Dec-03 03:32N 60°05' E 006°32'0 0.0
2016-Dec-03 02:33N 60°05' E 006°32'0 0.0
2016-Dec-03 01:33N 60°05' E 006°32'0 0.0
2016-Dec-03 00:31N 60°05' E 006°32'0 0.0
2016-Dec-02 23:31N 60°05' E 006°32'0 0.0
2016-Dec-02 22:33N 60°05' E 006°32'0 0.0
2016-Dec-02 21:33N 60°05' E 006°32'0 0.0
2016-Dec-02 20:32N 60°05' E 006°32'0 0.0
2016-Dec-02 19:33N 60°05' E 006°32'0 0.0
2016-Dec-02 18:31N 60°05' E 006°32'0 0.0
2016-Dec-02 17:30N 60°05' E 006°32'0 0.0
2016-Dec-02 16:31N 60°05' E 006°32'1515.3
2016-Dec-02 15:33N 60°20' E 006°38'7 7.1
2016-Dec-02 14:33N 60°26' E 006°32'10 9.7
2016-Dec-02 13:32N 60°20' E 006°17'9 9.3
2016-Dec-02 12:32N 60°13' E 006°06'9 9.5
2016-Dec-02 11:33N 60°04' E 005°60'10 9.8
2016-Dec-02 10:32N 59°56' E 005°47'10 9.8
2016-Dec-02 09:33N 59°49' E 005°35'9 8.7
2016-Dec-02 08:32N 59°57' E 005°27'8 8.2
2016-Dec-02 07:32N 60°04' E 005°19'8 7.4
2016-Dec-02 06:30N 60°10' E 005°12'7 6.9
2016-Dec-02 05:32N 60°09' E 004°59'7 6.9
2016-Dec-02 04:33N 60°07' E 004°46'5345.3
2016-Dec-02 03:23N 60°05' E 006°32'0 0.0
2016-Dec-02 02:31N 60°05' E 006°32'0 0.0
2016-Dec-02 01:33N 60°05' E 006°32'0 0.0
2016-Dec-02 00:33N 60°05' E 006°32'0 0.0
2016-Dec-01 23:33N 60°05' E 006°32'0 0.0
2016-Dec-01 22:31N 60°05' E 006°32'0 0.0
2016-Dec-01 21:30N 60°05' E 006°32'0 0.0
2016-Dec-01 20:33N 60°05' E 006°32'0 0.0
2016-Dec-01 19:31N 60°05' E 006°32'0 0.0
2016-Dec-01 18:32N 60°05' E 006°32'  
2016-Nov-28 11:33N 58°45' W 002°42'1211.8
2016-Nov-28 10:33N 58°43' W 003°04'1615.6
2016-Nov-28 09:31N 58°42' W 003°35'1415.2
2016-Nov-28 08:33N 58°41' W 004°03'19210.7
2016-Nov-27 14:34N 55°53' W 006°54'1413.5
2016-Nov-27 13:33N 55°43' W 006°39'1514.9
2016-Nov-27 12:33N 55°31' W 006°22'1413.9
2016-Nov-27 11:33N 55°23' W 006°02'1413.8
2016-Nov-27 10:33N 55°12' W 005°48'1813.0
2016-Nov-27 09:10N 54°57' W 005°30'711.6
2016-Nov-27 08:33N 54°51' W 005°23'1211.6
2016-Nov-27 07:33N 54°42' W 005°12'1010.4
2016-Nov-27 06:33N 54°31' W 005°10'1111.5
2016-Nov-27 05:33N 54°20' W 005°12'1412.1
2016-Nov-27 04:26N 54°06' W 005°15'20612.2
2016-Nov-26 11:30N 50°44' W 006°19'  
2016-Nov-23 12:33N 39°22' W 009°50'1010.1
2016-Nov-23 11:33N 39°12' W 009°50'1110.6
2016-Nov-23 10:33N 39°01' W 009°50'1110.6
2016-Nov-23 09:33N 38°51' W 009°51'1110.6
2016-Nov-23 08:33N 38°40' W 009°49'1111.0
2016-Nov-23 07:33N 38°29' W 009°47'1211.9
2016-Nov-23 06:31N 38°17' W 009°43'  

Dump ship's entire track history